createdAt,value
2023-03-28T00:01:02.878Z,1.05
2023-03-28T00:03:30.122Z,0.90
2023-03-28T00:06:01.160Z,0.80
2023-03-28T00:08:28.903Z,1.02
2023-03-28T00:11:03.785Z,1.48
2023-03-28T00:13:30.969Z,1.55
2023-03-28T00:16:03.951Z,1.38
2023-03-28T00:18:31.405Z,0.82
2023-03-28T00:20:59.025Z,0.68
2023-03-28T00:23:27.900Z,1.30
2023-03-28T00:25:54.747Z,0.77
2023-03-28T00:28:21.566Z,1.95
2023-03-28T00:30:48.452Z,1.13
2023-03-28T00:33:15.936Z,1.02
2023-03-28T00:35:42.959Z,0.95
2023-03-28T00:38:09.898Z,1.08
2023-03-28T00:40:38.772Z,1.95
2023-03-28T00:43:14.358Z,1.85
2023-03-28T00:45:42.597Z,0.57
2023-03-28T00:48:15.177Z,1.20
2023-03-28T00:50:47.060Z,0.88
2023-03-28T00:53:20.130Z,1.38
2023-03-28T00:55:56.409Z,0.85
2023-03-28T00:58:27.790Z,0.93
2023-03-28T01:00:57.587Z,0.60
2023-03-28T01:03:29.022Z,1.60
2023-03-28T01:05:57.269Z,1.15
2023-03-28T01:08:36.708Z,2.17
2023-03-28T01:11:04.035Z,1.48
2023-03-28T01:13:37.782Z,1.02
2023-03-28T01:18:35.910Z,1.60
2023-03-28T01:21:06.235Z,1.27
2023-03-28T01:23:46.705Z,0.95
2023-03-28T01:26:57.982Z,1.13
2023-03-28T01:30:02.451Z,0.65
2023-03-28T01:33:06.526Z,2.15
2023-03-28T01:35:56.353Z,1.30
2023-03-28T01:38:35.181Z,1.70
2023-03-28T01:41:08.070Z,1.77
2023-03-28T01:43:51.438Z,1.92
2023-03-28T01:46:27.957Z,1.00
2023-03-28T01:49:07.901Z,1.38
2023-03-28T01:51:59.882Z,1.15
2023-03-28T01:54:33.385Z,1.90
2023-03-28T01:57:03.278Z,1.90
2023-03-28T01:59:43.724Z,1.40
2023-03-28T02:02:32.047Z,1.92
2023-03-28T02:05:07.939Z,1.83
2023-03-28T02:07:40.623Z,1.00
2023-03-28T02:10:12.037Z,1.83
2023-03-28T02:13:11.647Z,1.42
2023-03-28T02:15:48.080Z,1.73
2023-03-28T02:18:37.083Z,2.08
2023-03-28T02:21:48.952Z,2.10
2023-03-28T02:24:34.336Z,1.83
2023-03-28T02:27:11.382Z,2.17
2023-03-28T02:30:01.430Z,1.80
2023-03-28T02:32:34.255Z,2.17
2023-03-28T02:35:04.496Z,2.17
2023-03-28T02:40:36.828Z,2.03
2023-03-28T02:43:45.003Z,2.22
2023-03-28T02:46:28.739Z,1.85
2023-03-28T02:49:06.180Z,2.30
2023-03-28T02:51:42.010Z,2.85
2023-03-28T02:54:09.439Z,2.92
2023-03-28T02:56:42.584Z,1.77
2023-03-28T02:59:32.758Z,2.10
2023-03-28T03:02:02.028Z,1.83
2023-03-28T03:04:28.921Z,2.05
2023-03-28T03:06:56.102Z,3.03
2023-03-28T03:09:24.241Z,2.70
2023-03-28T03:11:51.031Z,2.08
2023-03-28T03:14:17.964Z,2.40
2023-03-28T03:16:48.967Z,1.88
2023-03-28T03:19:18.599Z,2.30
2023-03-28T03:21:45.635Z,2.00
2023-03-28T03:24:12.490Z,2.13
2023-03-28T03:26:42.807Z,1.90
2023-03-28T03:29:15.835Z,1.63
2023-03-28T03:31:43.164Z,2.45
2023-03-28T03:34:41.498Z,2.00
2023-03-28T03:37:11.672Z,2.03
2023-03-28T03:39:38.599Z,2.30
2023-03-28T03:42:06.346Z,1.80
2023-03-28T03:44:33.828Z,2.20
2023-03-28T03:47:01.022Z,2.55
2023-03-28T03:49:28.578Z,2.20
2023-03-28T03:51:57.313Z,2.30
2023-03-28T03:54:24.133Z,2.30
2023-03-28T03:56:51.116Z,2.63
2023-03-28T03:59:18.221Z,2.25
2023-03-28T04:01:52.920Z,2.30
2023-03-28T04:04:40.672Z,2.30
2023-03-28T04:07:31.056Z,2.60
2023-03-28T04:09:58.226Z,2.40
2023-03-28T04:12:27.825Z,2.05
2023-03-28T04:14:56.381Z,2.55
2023-03-28T04:17:46.628Z,2.20
2023-03-28T04:20:19.606Z,2.10
2023-03-28T04:23:02.304Z,2.10
2023-03-28T04:25:31.719Z,2.72
2023-03-28T04:28:04.852Z,2.53
2023-03-28T04:30:38.341Z,2.35
2023-03-28T04:33:28.622Z,2.42
2023-03-28T04:36:03.009Z,2.85
2023-03-28T04:38:32.635Z,4.18
2023-03-28T04:41:13.801Z,4.35
2023-03-28T04:44:03.703Z,4.70
2023-03-28T04:46:36.203Z,4.30
2023-03-28T04:49:09.650Z,4.28
2023-03-28T04:51:36.602Z,4.53
2023-03-28T04:54:03.847Z,5.05
2023-03-28T04:56:49.579Z,4.80
2023-03-28T04:59:23.917Z,4.97
2023-03-28T05:01:51.744Z,5.15
2023-03-28T05:04:42.485Z,4.82
2023-03-28T05:07:10.033Z,4.97
2023-03-28T05:09:38.129Z,5.22
2023-03-28T05:12:05.750Z,4.95
2023-03-28T05:14:39.925Z,5.45
2023-03-28T05:17:14.484Z,5.32
2023-03-28T05:20:02.113Z,5.93
2023-03-28T05:22:36.409Z,6.30
2023-03-28T05:25:06.607Z,4.97
2023-03-28T05:27:35.767Z,5.65
2023-03-28T05:30:02.702Z,6.53
2023-03-28T05:32:31.934Z,6.03
2023-03-28T05:34:59.057Z,5.85
2023-03-28T05:37:29.657Z,6.15
2023-03-28T05:39:58.477Z,7.15
2023-03-28T05:42:26.164Z,7.55
2023-03-28T05:44:53.115Z,7.28
2023-03-28T05:47:54.583Z,7.18
2023-03-28T05:50:24.075Z,8.45
2023-03-28T05:52:56.035Z,7.88
2023-03-28T05:55:23.099Z,7.82
2023-03-28T05:57:50.061Z,9.05
2023-03-28T06:00:19.770Z,8.30
2023-03-28T06:02:47.380Z,7.90
2023-03-28T06:05:20.703Z,9.00
2023-03-28T06:07:47.706Z,8.88
2023-03-28T06:10:18.538Z,8.82
2023-03-28T06:12:57.154Z,8.98
2023-03-28T06:15:24.126Z,8.23
2023-03-28T06:17:51.557Z,9.00
2023-03-28T06:20:18.690Z,8.88
2023-03-28T06:22:45.690Z,8.80
2023-03-28T06:25:12.602Z,8.88
2023-03-28T06:27:40.928Z,8.60
2023-03-28T06:30:08.584Z,9.57
2023-03-28T06:32:45.763Z,8.93
2023-03-28T06:35:14.742Z,10.45
2023-03-28T06:37:41.662Z,9.80
2023-03-28T06:40:09.740Z,9.48
2023-03-28T06:42:37.322Z,9.50
2023-03-28T06:45:36.354Z,9.27
2023-03-28T06:48:07.441Z,9.95
2023-03-28T06:50:54.469Z,10.35
2023-03-28T06:53:23.995Z,10.05
2023-03-28T06:55:52.268Z,13.00
2023-03-28T06:58:21.480Z,11.27
2023-03-28T07:03:36.282Z,12.50
2023-03-28T07:06:07.129Z,11.55
2023-03-28T07:08:34.828Z,12.85
2023-03-28T07:11:02.720Z,10.43
2023-03-28T07:13:30.511Z,11.93
2023-03-28T07:16:13.046Z,10.77
2023-03-28T07:18:41.294Z,12.23
2023-03-28T07:21:12.779Z,11.00
2023-03-28T07:23:39.986Z,11.05
2023-03-28T07:40:02.689Z,11.70
2023-03-28T07:42:29.982Z,10.40
2023-03-28T07:44:56.907Z,10.98
2023-03-28T07:47:24.036Z,12.07
2023-03-28T07:49:51.304Z,11.15
2023-03-28T07:52:20.796Z,11.27
2023-03-28T07:54:47.720Z,11.07
2023-03-28T07:57:14.841Z,11.45
2023-03-28T07:59:44.282Z,10.90
2023-03-28T08:02:13.070Z,11.50
2023-03-28T08:04:40.059Z,10.57
2023-03-28T08:07:09.808Z,11.63
2023-03-28T08:09:38.871Z,10.75
2023-03-28T08:12:21.484Z,9.80
2023-03-28T08:14:48.466Z,10.70
2023-03-28T08:17:21.353Z,10.95
2023-03-28T08:19:48.400Z,11.52
2023-03-28T08:22:27.560Z,11.05
2023-03-28T08:25:17.833Z,10.30
2023-03-28T08:27:45.600Z,10.80
2023-03-28T08:30:13.691Z,10.95
2023-03-28T08:32:54.562Z,11.02
2023-03-28T08:35:21.492Z,11.07
2023-03-28T08:37:52.344Z,10.40
2023-03-28T08:40:20.885Z,10.52
2023-03-28T08:43:23.922Z,11.65
2023-03-28T08:45:57.860Z,14.90
2023-03-28T08:48:42.085Z,11.95
2023-03-28T08:51:26.352Z,11.07
2023-03-28T08:54:24.304Z,11.70
2023-03-28T08:56:54.188Z,10.82
2023-03-28T08:59:43.485Z,11.65
2023-03-28T09:02:26.676Z,11.50
2023-03-28T09:05:02.028Z,11.43
2023-03-28T09:08:19.944Z,12.55
2023-03-28T09:11:01.961Z,11.55
2023-03-28T09:13:51.060Z,12.25
2023-03-28T09:16:53.475Z,11.57
2023-03-28T09:19:48.993Z,11.60
2023-03-28T09:22:57.597Z,11.48
2023-03-28T09:25:35.370Z,11.20
2023-03-28T09:28:18.258Z,12.13
2023-03-28T09:30:48.807Z,10.75
2023-03-28T09:33:27.226Z,10.93
2023-03-28T09:35:57.320Z,12.43
2023-03-28T09:38:42.231Z,12.50
2023-03-28T09:41:19.502Z,11.32
2023-03-28T09:43:54.809Z,10.65
2023-03-28T09:46:42.752Z,11.90
2023-03-28T09:49:25.029Z,11.32
2023-03-28T09:51:59.166Z,10.70
2023-03-28T09:54:31.173Z,11.27
2023-03-28T09:57:01.409Z,10.77
2023-03-28T09:59:58.151Z,12.75
2023-03-28T10:02:32.980Z,11.18
2023-03-28T10:05:30.864Z,11.10
2023-03-28T10:08:06.417Z,11.75
2023-03-28T10:10:55.503Z,11.90
2023-03-28T10:13:24.110Z,10.70
2023-03-28T10:15:51.439Z,12.68
2023-03-28T10:18:39.631Z,10.90
2023-03-28T10:21:21.226Z,10.82
2023-03-28T10:24:07.844Z,12.00
2023-03-28T10:26:36.614Z,12.30
2023-03-28T10:29:08.767Z,11.23
2023-03-28T10:31:39.680Z,10.52
2023-03-28T10:34:28.133Z,10.23
2023-03-28T10:37:24.384Z,10.77
2023-03-28T10:40:20.485Z,10.43
2023-03-28T10:43:14.620Z,11.95
2023-03-28T10:46:05.953Z,11.88
2023-03-28T10:49:04.909Z,10.70
2023-03-28T10:51:33.818Z,11.05
2023-03-28T10:54:06.688Z,10.90
2023-03-28T10:59:42.155Z,11.27
2023-03-28T11:02:42.562Z,11.63
2023-03-28T11:05:42.620Z,11.80
2023-03-28T11:08:46.159Z,11.52
2023-03-28T11:11:29.762Z,11.55
2023-03-28T11:14:16.795Z,11.32
2023-03-28T11:16:56.378Z,11.68
2023-03-28T11:19:44.457Z,11.07
2023-03-28T11:22:37.479Z,11.68
2023-03-28T11:25:17.349Z,11.85
2023-03-28T11:28:32.821Z,12.90
2023-03-28T11:31:15.933Z,12.05
2023-03-28T11:34:00.012Z,11.60
2023-03-28T11:36:54.054Z,11.60
2023-03-28T11:39:46.043Z,11.68
2023-03-28T11:42:24.484Z,13.18
2023-03-28T11:45:46.655Z,11.45
2023-03-28T11:49:08.832Z,12.30
2023-03-28T11:51:45.849Z,11.00
2023-03-28T11:54:19.113Z,11.80
2023-03-28T11:57:02.035Z,12.15
2023-03-28T11:59:48.271Z,11.70
2023-03-28T12:02:30.729Z,11.65
2023-03-28T12:05:06.223Z,11.68
2023-03-28T12:07:48.424Z,12.65
2023-03-28T12:10:36.669Z,12.40
2023-03-28T12:13:28.151Z,12.00
2023-03-28T12:16:09.211Z,11.77
2023-03-28T12:18:47.249Z,10.13
2023-03-28T12:21:49.444Z,11.10
2023-03-28T12:24:27.850Z,10.43
2023-03-28T12:27:25.622Z,10.43
2023-03-28T12:30:21.438Z,10.68
2023-03-28T12:33:26.149Z,11.90
2023-03-28T12:36:22.087Z,10.70
2023-03-28T12:39:10.103Z,10.73
2023-03-28T12:41:41.199Z,11.32
2023-03-28T12:44:22.940Z,11.45
2023-03-28T12:46:59.826Z,11.07
2023-03-28T12:49:48.638Z,10.38
2023-03-28T12:52:27.308Z,10.10
2023-03-28T12:55:02.090Z,10.73
2023-03-28T12:58:13.672Z,10.60
2023-03-28T13:01:09.723Z,11.43
2023-03-28T13:04:06.605Z,8.75
2023-03-28T13:07:03.352Z,10.30
2023-03-28T13:09:49.592Z,11.07
2023-03-28T13:12:31.000Z,9.35
2023-03-28T13:15:03.666Z,9.20
2023-03-28T13:17:33.017Z,9.23
2023-03-28T13:20:24.280Z,9.55
2023-03-28T13:23:02.334Z,8.80
2023-03-28T13:25:37.002Z,8.93
2023-03-28T13:28:13.161Z,8.20
2023-03-28T13:30:45.140Z,12.13
2023-03-28T13:33:27.188Z,7.95
2023-03-28T13:36:00.359Z,8.40
2023-03-28T13:38:27.413Z,7.93
2023-03-28T13:41:09.459Z,7.88
2023-03-28T13:43:55.141Z,7.70
2023-03-28T13:46:37.013Z,9.38
2023-03-28T13:49:18.295Z,8.25
2023-03-28T13:51:54.808Z,6.85
2023-03-28T13:54:22.727Z,5.85
2023-03-28T13:56:52.550Z,6.93
2023-03-28T13:59:25.300Z,6.18
2023-03-28T14:01:57.566Z,6.88
2023-03-28T14:04:32.001Z,5.70
2023-03-28T14:09:28.855Z,5.80
2023-03-28T14:12:05.807Z,5.60
2023-03-28T14:14:39.655Z,6.35
2023-03-28T14:17:12.131Z,5.22
2023-03-28T14:19:46.892Z,4.53
2023-03-28T14:22:19.323Z,4.38
2023-03-28T14:24:50.641Z,4.90
2023-03-28T14:27:30.652Z,4.43
2023-03-28T14:29:59.732Z,5.38
2023-03-28T14:32:33.002Z,4.63
2023-03-28T14:35:21.404Z,4.35
2023-03-28T14:37:49.638Z,3.47
2023-03-28T14:40:38.153Z,3.80
2023-03-28T14:43:19.986Z,4.47
2023-03-28T14:45:52.760Z,5.07
2023-03-28T14:48:29.785Z,3.77
2023-03-28T14:50:59.017Z,3.90
2023-03-28T14:53:28.519Z,4.30
2023-03-28T14:56:02.154Z,6.05
2023-03-28T14:58:31.203Z,4.10
2023-03-28T15:01:02.023Z,4.88
2023-03-28T15:03:35.789Z,4.20
2023-03-28T15:06:03.829Z,4.72
2023-03-28T15:08:37.957Z,5.03
2023-03-28T15:11:29.353Z,4.82
2023-03-28T15:14:04.820Z,4.72
2023-03-28T15:16:36.134Z,4.80
2023-03-28T15:19:09.443Z,5.82
2023-03-28T15:21:39.088Z,3.95
2023-03-28T15:24:09.858Z,5.47
2023-03-28T15:26:42.181Z,5.70
2023-03-28T15:29:10.309Z,5.40
2023-03-28T15:31:40.905Z,5.93
2023-03-28T15:34:13.062Z,7.38
2023-03-28T15:36:49.155Z,8.13
2023-03-28T15:39:28.079Z,7.53
2023-03-28T15:42:00.301Z,7.35
2023-03-28T15:44:38.665Z,7.05
2023-03-28T15:47:13.264Z,6.63
2023-03-28T15:49:40.638Z,7.18
2023-03-28T15:52:16.912Z,7.63
2023-03-28T15:54:48.573Z,6.80
2023-03-28T15:57:17.864Z,6.25
2023-03-28T15:59:51.201Z,6.95
2023-03-28T16:02:24.262Z,5.97
2023-03-28T16:05:15.487Z,7.07
2023-03-28T16:07:48.756Z,7.28
2023-03-28T16:10:21.179Z,7.43
2023-03-28T16:13:14.544Z,7.22
2023-03-28T16:16:05.490Z,8.45
2023-03-28T16:18:55.871Z,8.10
2023-03-28T16:21:22.847Z,7.93
2023-03-28T16:23:49.843Z,7.78
2023-03-28T16:26:16.776Z,7.25
2023-03-28T16:28:43.740Z,8.52
2023-03-28T16:31:15.672Z,7.43
2023-03-28T16:33:42.743Z,8.00
2023-03-28T16:36:12.505Z,9.27
2023-03-28T16:38:39.535Z,7.78
2023-03-28T16:41:07.098Z,8.68
2023-03-28T16:43:35.208Z,7.40
2023-03-28T16:46:02.796Z,8.73
2023-03-28T16:48:32.130Z,8.00
2023-03-28T16:51:04.688Z,7.32
2023-03-28T16:53:33.459Z,7.32
2023-03-28T16:56:01.224Z,6.38
2023-03-28T16:58:29.678Z,6.70
2023-03-28T17:00:57.321Z,6.90
2023-03-28T17:03:24.572Z,6.82
2023-03-28T17:05:51.649Z,7.18
2023-03-28T17:08:18.595Z,7.57
2023-03-28T17:10:45.675Z,7.25
2023-03-28T17:13:12.551Z,7.07
2023-03-28T17:15:39.530Z,7.60
2023-03-28T17:18:06.572Z,7.38
2023-03-28T17:20:33.624Z,6.05
2023-03-28T17:23:00.544Z,6.82
2023-03-28T17:25:27.640Z,7.85
2023-03-28T17:27:54.494Z,7.43
2023-03-28T17:30:21.789Z,7.63
2023-03-28T17:32:49.240Z,7.60
2023-03-28T17:35:16.962Z,6.85
2023-03-28T17:37:43.917Z,6.00
2023-03-28T17:40:11.605Z,7.60
2023-03-28T17:42:38.509Z,9.55
2023-03-28T17:45:07.290Z,8.07
2023-03-28T17:47:34.794Z,8.55
2023-03-28T17:50:02.359Z,8.73
2023-03-28T17:52:32.347Z,7.70
2023-03-28T17:54:59.418Z,8.00
2023-03-28T17:57:26.673Z,8.45
2023-03-28T17:59:54.672Z,8.15
2023-03-28T18:02:21.763Z,7.10
2023-03-28T18:05:00.889Z,7.03
2023-03-28T18:07:31.568Z,7.15
2023-03-28T18:10:01.589Z,7.03
2023-03-28T18:12:28.648Z,7.90
2023-03-28T18:14:58.949Z,7.57
2023-03-28T18:17:28.091Z,7.13
2023-03-28T18:19:54.973Z,5.95
2023-03-28T18:22:22.219Z,5.00
2023-03-28T18:24:49.060Z,5.32
2023-03-28T18:27:15.951Z,5.65
2023-03-28T18:29:42.905Z,4.93
2023-03-28T18:32:09.892Z,4.82
2023-03-28T18:34:36.793Z,5.25
2023-03-28T18:37:04.404Z,5.18
2023-03-28T18:39:31.725Z,4.97
2023-03-28T18:41:58.681Z,4.32
2023-03-28T18:44:25.554Z,3.85
2023-03-28T18:46:54.938Z,4.50
2023-03-28T18:49:22.823Z,3.40
2023-03-28T18:51:49.812Z,3.90
2023-03-28T18:54:17.379Z,3.42
2023-03-28T18:56:44.830Z,3.63
2023-03-28T18:59:12.051Z,4.25
2023-03-28T19:01:42.327Z,3.25
2023-03-28T19:04:11.970Z,3.58
2023-03-28T19:06:39.808Z,4.10
2023-03-28T19:09:06.900Z,3.80
2023-03-28T19:11:33.919Z,3.78
2023-03-28T19:14:00.823Z,4.35
2023-03-28T19:16:28.117Z,3.97
2023-03-28T19:18:55.130Z,3.40
2023-03-28T19:21:22.060Z,4.63
2023-03-28T19:23:49.175Z,3.97
2023-03-28T19:26:18.389Z,3.88
2023-03-28T19:42:02.505Z,4.28
2023-03-28T19:44:29.446Z,3.78
2023-03-28T19:46:56.365Z,4.03
2023-03-28T19:49:23.400Z,5.35
2023-03-28T19:52:12.979Z,5.63
2023-03-28T19:54:39.957Z,5.80
2023-03-28T19:57:08.262Z,5.25
2023-03-28T19:59:35.455Z,2.92
2023-03-28T20:02:02.421Z,2.72
2023-03-28T20:04:32.508Z,2.38
2023-03-28T20:06:59.419Z,3.20
2023-03-28T20:09:26.362Z,2.10
2023-03-28T20:11:53.271Z,3.03
2023-03-28T20:14:21.684Z,2.28
2023-03-28T20:16:48.876Z,1.73
2023-03-28T20:19:18.031Z,1.80
2023-03-28T20:21:45.283Z,2.15
2023-03-28T20:24:12.207Z,1.10
2023-03-28T20:26:39.948Z,1.80
2023-03-28T20:29:10.378Z,2.38
2023-03-28T20:31:37.533Z,1.70
2023-03-28T20:34:04.579Z,2.00
2023-03-28T20:36:34.200Z,2.35
2023-03-28T20:39:01.976Z,1.63
2023-03-28T20:41:29.861Z,1.90
2023-03-28T20:44:03.644Z,2.33
2023-03-28T20:46:38.141Z,2.55
2023-03-28T20:49:06.739Z,2.80
2023-03-28T20:51:37.616Z,2.38
2023-03-28T20:54:06.539Z,3.53
2023-03-28T20:56:33.540Z,2.10
2023-03-28T20:59:00.459Z,2.47
2023-03-28T21:01:30.320Z,2.50
2023-03-28T21:03:58.879Z,2.20
2023-03-28T21:06:33.455Z,1.80
2023-03-28T21:09:02.916Z,2.20
2023-03-28T21:11:31.998Z,1.70
2023-03-28T21:14:00.456Z,2.05
2023-03-28T21:16:29.171Z,1.20
2023-03-28T21:18:57.624Z,4.85
2023-03-28T21:21:26.072Z,2.08
2023-03-28T21:23:53.324Z,2.45
2023-03-28T21:26:22.923Z,1.30
2023-03-28T21:28:52.364Z,2.45
2023-03-28T21:31:28.288Z,1.77
2023-03-28T21:33:57.479Z,1.80
2023-03-28T21:36:25.814Z,1.95
2023-03-28T21:38:54.879Z,1.85
2023-03-28T21:41:22.722Z,1.00
2023-03-28T21:43:50.382Z,1.67
2023-03-28T21:46:18.848Z,1.02
2023-03-28T21:48:48.406Z,1.63
2023-03-28T21:51:17.237Z,1.52
2023-03-28T21:53:44.621Z,2.05
2023-03-28T21:56:12.932Z,2.72
2023-03-28T21:58:40.479Z,1.00
2023-03-28T22:01:07.845Z,1.23
2023-03-28T22:03:37.936Z,0.90
2023-03-28T22:06:05.352Z,1.20
2023-03-28T22:08:32.618Z,1.45
2023-03-28T22:11:02.347Z,1.35
2023-03-28T22:13:30.035Z,2.15
2023-03-28T22:15:58.589Z,1.20
2023-03-28T22:18:27.908Z,1.65
2023-03-28T22:20:55.449Z,1.45
2023-03-28T22:23:24.094Z,1.25
2023-03-28T22:25:53.063Z,3.53
2023-03-28T22:28:24.727Z,11.20
2023-03-28T22:30:55.687Z,3.05
2023-03-28T22:33:23.655Z,1.88
2023-03-28T22:35:50.691Z,2.25
2023-03-28T22:38:19.328Z,2.05
2023-03-28T22:40:47.651Z,2.40
2023-03-28T22:43:15.395Z,2.03
2023-03-28T22:45:43.046Z,1.45
2023-03-28T22:48:15.827Z,2.63
2023-03-28T22:50:44.526Z,1.15
2023-03-28T22:53:15.177Z,2.05
2023-03-28T22:55:44.030Z,1.73
2023-03-28T22:58:14.599Z,1.35
2023-03-28T23:00:43.890Z,2.42
2023-03-28T23:03:10.929Z,1.67
2023-03-28T23:05:37.934Z,1.95
2023-03-28T23:08:05.597Z,2.03
2023-03-28T23:10:33.522Z,1.50
2023-03-28T23:13:00.575Z,2.00
2023-03-28T23:15:28.067Z,2.67
2023-03-28T23:17:55.106Z,3.00
2023-03-28T23:20:22.097Z,3.15
2023-03-28T23:22:49.118Z,3.08
2023-03-28T23:25:18.739Z,2.80
2023-03-28T23:27:46.741Z,3.10
2023-03-28T23:30:15.428Z,3.45
2023-03-28T23:32:42.354Z,4.05
2023-03-28T23:35:10.597Z,4.07
2023-03-28T23:37:38.539Z,4.20
2023-03-28T23:40:14.863Z,3.80
2023-03-28T23:42:44.690Z,3.50
2023-03-28T23:45:13.950Z,3.33
2023-03-28T23:47:41.275Z,3.35
2023-03-28T23:50:12.056Z,4.30
2023-03-28T23:52:40.031Z,4.35
2023-03-28T23:55:08.921Z,4.40
2023-03-28T23:57:36.125Z,3.42
